Time;durP1;ratioP1;P1;durP2;ratioP2;P2;SDS_P1;SDS_P2;PMS_P1;PMS_P2;Temp;Humidity;BMP_temperature;BMP_pressure;BME280_temperature;BME280_humidity;BME280_pressure;Samples;Min_cycle;Max_cycle;Signal;HPM_P1;HPM_P2
2022/06/30 00:01:02;;;;;;;2.55;2.35;;;20.20;58.10;;;;;;650814;221;26558;-72
2022/06/30 00:03:29;;;;;;;2.08;1.87;;;20.20;58.30;;;;;;650826;221;26945;-72
2022/06/30 00:05:57;;;;;;;2.50;2.30;;;20.20;58.20;;;;;;650888;219;26517;-72
2022/06/30 00:08:24;;;;;;;2.10;1.90;;;20.20;58.40;;;;;;650778;219;26785;-73
2022/06/30 00:10:51;;;;;;;2.30;2.10;;;20.20;58.50;;;;;;652012;218;26587;-72
2022/06/30 00:13:19;;;;;;;2.42;2.00;;;20.20;58.60;;;;;;652187;218;26524;-72
2022/06/30 00:15:46;;;;;;;2.25;2.05;;;20.20;58.70;;;;;;651856;220;26513;-72
2022/06/30 00:18:14;;;;;;;2.05;1.90;;;20.20;58.90;;;;;;651768;221;26746;-73
2022/06/30 00:20:41;;;;;;;2.15;2.05;;;20.20;59.20;;;;;;651481;220;26545;-72
2022/06/30 00:23:08;;;;;;;2.15;2.03;;;20.20;59.30;;;;;;651366;221;26804;-72
2022/06/30 00:25:35;;;;;;;2.60;2.30;;;20.20;59.70;;;;;;651491;221;26535;-71
2022/06/30 00:28:02;;;;;;;2.47;2.28;;;20.20;60.00;;;;;;651336;219;26832;-72
2022/06/30 00:30:30;;;;;;;2.62;1.87;;;20.20;60.60;;;;;;651096;219;26535;-72
2022/06/30 00:32:58;;;;;;;1.52;1.50;;;20.10;61.90;;;;;;651073;221;26513;-72
2022/06/30 00:35:25;;;;;;;2.00;1.90;;;20.10;61.90;;;;;;651150;221;26507;-72
2022/06/30 00:37:53;;;;;;;1.98;1.87;;;20.10;62.80;;;;;;651115;221;26736;-73
2022/06/30 00:40:20;;;;;;;2.03;1.90;;;20.00;62.70;;;;;;651021;220;26532;-72
2022/06/30 00:42:47;;;;;;;1.83;1.70;;;20.00;63.20;;;;;;651029;221;26738;-72
2022/06/30 00:45:14;;;;;;;2.00;1.90;;;20.00;63.70;;;;;;651118;221;26495;-72
2022/06/30 00:47:41;;;;;;;2.22;2.03;;;20.00;64.30;;;;;;650771;220;26784;-72
2022/06/30 00:50:09;;;;;;;2.22;2.05;;;20.00;65.00;;;;;;650816;221;26539;-73
2022/06/30 00:52:36;;;;;;;2.15;2.00;;;19.90;65.20;;;;;;651190;221;26728;-73
2022/06/30 00:55:04;;;;;;;3.35;1.80;;;19.90;65.80;;;;;;651111;221;26473;-73
2022/06/30 00:57:31;;;;;;;1.60;1.50;;;19.90;66.20;;;;;;651172;221;26494;-73
2022/06/30 00:59:58;;;;;;;1.77;1.67;;;20.00;66.70;;;;;;651195;219;26789;-73
2022/06/30 01:02:26;;;;;;;2.08;1.70;;;20.10;67.30;;;;;;650931;221;26544;-71
2022/06/30 01:04:54;;;;;;;2.53;2.03;;;20.20;67.50;;;;;;650755;221;26551;-72
2022/06/30 01:07:22;;;;;;;1.90;1.80;;;20.20;67.70;;;;;;650736;221;26551;-72
2022/06/30 01:14:55;;;;;;;1.92;1.80;;;20.40;68.20;;;;;;650860;221;26569;-73
2022/06/30 01:17:23;;;;;;;2.25;1.73;;;20.40;68.30;;;;;;650445;221;26558;-72
2022/06/30 01:19:51;;;;;;;2.08;1.92;;;20.50;68.40;;;;;;650793;221;26550;-73
2022/06/30 01:22:19;;;;;;;2.10;1.90;;;20.50;69.10;;;;;;651782;219;26524;-72
2022/06/30 01:24:47;;;;;;;2.10;2.00;;;20.50;69.30;;;;;;652151;220;26573;-72
2022/06/30 01:27:15;;;;;;;1.67;1.58;;;20.50;69.30;;;;;;651753;220;26522;-73
2022/06/30 01:29:43;;;;;;;2.00;1.90;;;20.60;69.20;;;;;;651726;220;26573;-72
2022/06/30 01:32:10;;;;;;;1.83;1.73;;;20.50;69.10;;;;;;651516;221;26522;-73
2022/06/30 01:34:37;;;;;;;1.92;1.83;;;20.50;69.90;;;;;;651429;219;26561;-72
2022/06/30 01:37:05;;;;;;;2.65;1.90;;;20.60;70.40;;;;;;651463;221;26901;-74
2022/06/30 01:39:33;;;;;;;1.80;1.70;;;20.50;70.10;;;;;;651306;218;26604;-72
2022/06/30 01:42:00;;;;;;;1.80;1.70;;;20.60;70.10;;;;;;651155;221;26741;-72
2022/06/30 01:44:27;;;;;;;2.10;2.00;;;20.60;70.50;;;;;;651146;221;26508;-72
2022/06/30 01:46:54;;;;;;;2.00;1.90;;;20.60;71.10;;;;;;651101;221;26753;-73
2022/06/30 01:49:21;;;;;;;2.25;1.90;;;20.60;70.70;;;;;;651052;221;26524;-72
2022/06/30 01:51:49;;;;;;;1.90;1.80;;;20.60;70.90;;;;;;651152;221;26738;-72
2022/06/30 01:54:16;;;;;;;1.95;1.85;;;20.60;71.50;;;;;;651157;221;26516;-73
2022/06/30 01:56:43;;;;;;;2.00;1.90;;;20.60;71.60;;;;;;651081;221;26726;-73
2022/06/30 01:59:10;;;;;;;1.80;1.70;;;20.70;71.50;;;;;;650807;217;26530;-72
2022/06/30 02:01:37;;;;;;;2.05;1.95;;;20.70;71.70;;;;;;650861;219;26471;-73
2022/06/30 02:06:38;;;;;;;2.00;1.90;;;20.60;72.20;;;;;;651179;221;26555;-73
2022/06/30 02:09:06;;;;;;;2.03;1.92;;;20.60;73.00;;;;;;651161;221;26529;-72
2022/06/30 02:11:34;;;;;;;3.05;1.92;;;20.60;73.10;;;;;;651175;221;26537;-72
2022/06/30 02:14:02;;;;;;;1.80;1.70;;;20.60;73.10;;;;;;651085;220;27210;-73
2022/06/30 02:16:30;;;;;;;1.98;1.80;;;20.60;72.60;;;;;;650793;220;26525;-73
2022/06/30 02:18:56;;;;;;;2.15;1.90;;;20.60;72.80;;;;;;650738;218;26784;-74
2022/06/30 02:21:23;;;;;;;2.33;2.12;;;20.60;73.80;;;;;;650812;221;26560;-72
2022/06/30 02:23:52;;;;;;;1.98;1.87;;;20.60;73.70;;;;;;650772;221;26824;-72
2022/06/30 02:26:20;;;;;;;2.10;1.95;;;20.50;74.70;;;;;;650710;221;26516;-72
2022/06/30 02:28:47;;;;;;;1.77;1.67;;;20.50;74.50;;;;;;650669;221;26521;-71
2022/06/30 02:31:15;;;;;;;1.70;1.60;;;20.50;74.50;;;;;;650680;221;26583;-71
2022/06/30 02:33:42;;;;;;;1.80;1.70;;;20.50;73.70;;;;;;651720;218;26532;-71
2022/06/30 02:36:09;;;;;;;1.70;1.60;;;20.50;74.00;;;;;;652270;220;26773;-71
2022/06/30 02:38:37;;;;;;;2.37;2.10;;;20.50;75.10;;;;;;651969;220;26548;-71
2022/06/30 02:41:04;;;;;;;2.05;1.95;;;20.50;75.40;;;;;;651825;221;26500;-71
2022/06/30 02:43:31;;;;;;;1.87;1.77;;;20.50;75.30;;;;;;651484;221;26591;-71
2022/06/30 02:45:58;;;;;;;1.80;1.70;;;20.50;75.30;;;;;;651466;221;26545;-71
2022/06/30 02:48:25;;;;;;;1.85;1.75;;;20.60;74.90;;;;;;651398;221;26802;-71
2022/06/30 02:50:53;;;;;;;1.80;1.70;;;20.50;75.00;;;;;;651427;221;26601;-71
2022/06/30 02:53:21;;;;;;;1.92;1.83;;;20.50;74.80;;;;;;651150;221;26523;-71
2022/06/30 02:55:48;;;;;;;2.05;1.60;;;20.50;74.90;;;;;;651046;221;26505;-71
2022/06/30 02:58:17;;;;;;;1.70;1.60;;;20.50;74.80;;;;;;651060;221;26485;-71
2022/06/30 03:00:44;;;;;;;1.92;1.70;;;20.50;75.20;;;;;;650941;221;26534;-71
2022/06/30 03:03:11;;;;;;;4.25;1.95;;;20.50;75.00;;;;;;651115;221;26508;-71
2022/06/30 03:05:39;;;;;;;2.00;1.90;;;20.60;74.00;;;;;;651119;219;26481;-71
2022/06/30 03:08:07;;;;;;;1.62;1.50;;;20.50;73.60;;;;;;651054;219;26539;-71
2022/06/30 03:10:34;;;;;;;1.85;1.75;;;20.60;74.30;;;;;;650765;221;26624;-71
2022/06/30 03:13:02;;;;;;;1.55;1.45;;;20.60;73.20;;;;;;650784;221;26814;-71
2022/06/30 03:15:29;;;;;;;1.65;1.52;;;20.60;73.20;;;;;;650758;221;26759;-71
2022/06/30 03:17:56;;;;;;;1.80;1.70;;;20.70;72.30;;;;;;650792;221;26552;-71
2022/06/30 03:20:23;;;;;;;1.40;1.30;;;20.70;71.80;;;;;;650828;221;26830;-71
2022/06/30 03:22:51;;;;;;;1.50;1.40;;;20.70;71.20;;;;;;650710;221;26569;-71
2022/06/30 03:25:19;;;;;;;1.70;1.60;;;20.90;69.80;;;;;;650837;221;26577;-71
2022/06/30 03:27:47;;;;;;;1.73;1.62;;;20.90;69.30;;;;;;650820;221;26509;-71
2022/06/30 03:30:15;;;;;;;1.80;1.70;;;20.90;69.60;;;;;;650807;221;26574;-71
2022/06/30 03:32:42;;;;;;;1.90;1.80;;;20.90;68.90;;;;;;650792;221;26517;-71
2022/06/30 03:35:09;;;;;;;1.65;1.55;;;21.00;68.80;;;;;;650767;221;26530;-71
2022/06/30 03:37:36;;;;;;;1.67;1.58;;;21.00;69.20;;;;;;650772;221;26853;-71
2022/06/30 03:40:04;;;;;;;3.17;1.90;;;21.00;69.10;;;;;;650763;218;26565;-71
2022/06/30 03:42:32;;;;;;;2.05;1.48;;;21.00;68.70;;;;;;650850;221;26519;-71
2022/06/30 03:44:59;;;;;;;1.67;1.62;;;21.10;68.70;;;;;;651481;218;26770;-71
2022/06/30 03:47:26;;;;;;;1.58;1.48;;;21.00;68.70;;;;;;652386;220;26552;-71
2022/06/30 03:49:53;;;;;;;1.70;1.60;;;21.00;69.00;;;;;;651972;217;26781;-71
2022/06/30 03:52:20;;;;;;;1.77;1.55;;;21.10;69.00;;;;;;651764;221;26518;-71
2022/06/30 03:54:48;;;;;;;1.80;1.70;;;21.10;69.40;;;;;;651629;221;27235;-71
2022/06/30 03:57:15;;;;;;;1.45;1.40;;;21.10;69.10;;;;;;651438;221;26573;-71
2022/06/30 03:59:43;;;;;;;1.87;1.77;;;21.10;69.20;;;;;;651509;221;26544;-71
2022/06/30 04:02:11;;;;;;;1.77;1.58;;;21.00;69.60;;;;;;651475;221;26775;-71
2022/06/30 04:04:38;;;;;;;1.90;1.80;;;21.00;69.60;;;;;;651180;221;26891;-71
2022/06/30 04:07:05;;;;;;;2.05;1.77;;;21.00;69.60;;;;;;651117;221;26541;-71
2022/06/30 04:09:32;;;;;;;2.28;1.52;;;20.90;70.20;;;;;;651137;218;26742;-71
2022/06/30 04:12:00;;;;;;;1.50;1.50;;;20.90;70.10;;;;;;651133;221;26586;-71
2022/06/30 04:14:28;;;;;;;2.05;1.58;;;20.80;70.70;;;;;;651085;221;26756;-71
2022/06/30 04:16:55;;;;;;;1.75;1.65;;;20.80;70.70;;;;;;651148;221;26741;-71
2022/06/30 04:19:23;;;;;;;2.03;1.87;;;20.80;71.70;;;;;;651078;221;26536;-71
2022/06/30 04:21:50;;;;;;;1.77;1.67;;;20.80;72.20;;;;;;650764;221;26967;-71
2022/06/30 04:24:17;;;;;;;1.65;1.55;;;20.90;72.00;;;;;;650799;221;26531;-71
2022/06/30 04:26:44;;;;;;;1.70;1.60;;;20.90;72.20;;;;;;650804;221;26739;-71
2022/06/30 04:29:11;;;;;;;2.45;1.67;;;21.00;72.20;;;;;;650760;221;26536;-71
2022/06/30 04:34:11;;;;;;;1.70;1.60;;;21.30;72.00;;;;;;650746;221;26578;-71
2022/06/30 04:36:39;;;;;;;1.80;1.70;;;21.60;70.90;;;;;;650755;221;26552;-71
2022/06/30 04:39:07;;;;;;;1.60;1.50;;;21.70;70.80;;;;;;650659;221;26636;-71
2022/06/30 04:41:36;;;;;;;1.85;1.75;;;21.70;70.70;;;;;;650790;221;26573;-71
2022/06/30 04:44:02;;;;;;;1.92;1.80;;;21.90;70.80;;;;;;650713;221;26519;-71
2022/06/30 04:46:29;;;;;;;1.60;1.50;;;22.10;70.10;;;;;;650796;220;26800;-71
2022/06/30 04:48:56;;;;;;;1.58;1.48;;;22.10;69.20;;;;;;650741;221;26552;-71
2022/06/30 04:51:23;;;;;;;1.80;1.70;;;22.10;70.00;;;;;;650754;221;26750;-71
2022/06/30 04:53:51;;;;;;;1.73;1.60;;;22.00;69.60;;;;;;650658;221;26566;-71
2022/06/30 04:56:18;;;;;;;1.90;1.80;;;22.00;70.10;;;;;;651292;218;26786;-71
2022/06/30 04:58:45;;;;;;;1.80;1.70;;;21.90;70.00;;;;;;652422;219;26503;-71
2022/06/30 05:01:12;;;;;;;1.90;1.80;;;21.90;70.40;;;;;;651959;220;27144;-71
2022/06/30 05:03:39;;;;;;;1.77;1.67;;;21.80;69.80;;;;;;651821;221;26522;-71
2022/06/30 05:06:07;;;;;;;2.50;1.62;;;21.70;70.50;;;;;;651550;221;26791;-70
2022/06/30 05:08:35;;;;;;;2.03;1.92;;;21.70;70.70;;;;;;651377;221;26570;-70
2022/06/30 05:11:03;;;;;;;2.08;1.50;;;21.80;71.00;;;;;;651464;218;26593;-71
2022/06/30 05:13:30;;;;;;;1.87;1.60;;;21.80;70.90;;;;;;651444;221;26565;-70
2022/06/30 05:15:58;;;;;;;1.80;1.65;;;21.90;70.50;;;;;;651134;221;26517;-70
2022/06/30 05:18:26;;;;;;;1.80;1.70;;;21.90;70.10;;;;;;651132;221;26754;-71
2022/06/30 05:20:52;;;;;;;1.50;1.40;;;21.90;70.00;;;;;;651378;221;26512;-70
2022/06/30 05:23:19;;;;;;;2.10;1.75;;;21.90;70.70;;;;;;651533;221;26476;-71
2022/06/30 05:28:21;;;;;;;1.80;1.65;;;22.10;69.90;;;;;;651527;221;26449;-70
2022/06/30 05:30:48;;;;;;;2.60;1.62;;;22.30;69.30;;;;;;651538;221;26516;-69
2022/06/30 05:33:19;;;;;;;2.08;1.75;;;22.70;68.70;;;;;;651056;221;26568;-72
2022/06/30 05:35:44;;;;;;;1.60;1.50;;;22.90;66.90;;;;;;650937;221;26570;-70
2022/06/30 05:38:11;;;;;;;1.92;1.70;;;22.90;66.80;;;;;;650757;221;26758;-70
2022/06/30 05:40:38;;;;;;;1.95;1.85;;;23.20;66.40;;;;;;650759;221;26581;-70
2022/06/30 05:43:11;;;;;;;1.75;1.65;;;23.40;64.70;;;;;;650800;221;26783;-70
2022/06/30 05:45:34;;;;;;;1.80;1.70;;;23.40;64.60;;;;;;650445;221;26568;-69
2022/06/30 05:48:01;;;;;;;1.77;1.67;;;23.60;64.30;;;;;;650772;221;26794;-68
2022/06/30 05:50:29;;;;;;;1.60;1.50;;;23.80;63.70;;;;;;650734;221;26575;-68
2022/06/30 05:52:56;;;;;;;3.72;1.65;;;23.80;62.90;;;;;;650762;221;26508;-68
2022/06/30 05:55:23;;;;;;;3.72;2.20;;;23.80;62.50;;;;;;650791;220;27197;-68
2022/06/30 05:57:52;;;;;;;2.15;1.67;;;23.90;63.70;;;;;;650844;221;26602;-68
2022/06/30 06:00:20;;;;;;;1.65;1.55;;;24.00;62.90;;;;;;650703;218;26804;-68
2022/06/30 06:02:47;;;;;;;1.35;1.35;;;24.10;62.90;;;;;;650837;220;26584;-68
2022/06/30 06:05:14;;;;;;;1.70;1.40;;;24.10;62.10;;;;;;650739;221;26761;-68
2022/06/30 06:07:42;;;;;;;1.55;1.45;;;23.80;62.60;;;;;;651052;219;26556;-68
2022/06/30 06:10:10;;;;;;;1.67;1.58;;;23.70;62.70;;;;;;652500;217;26542;-69
2022/06/30 06:12:38;;;;;;;1.90;1.80;;;23.50;63.30;;;;;;651961;220;26565;-68
2022/06/30 06:15:07;;;;;;;1.58;1.48;;;23.30;65.20;;;;;;651897;220;26521;-68
2022/06/30 06:17:34;;;;;;;2.58;1.80;;;23.20;65.10;;;;;;651646;219;26545;-69
2022/06/30 06:20:01;;;;;;;2.65;2.00;;;23.10;66.50;;;;;;650647;221;26806;-69
2022/06/30 06:22:29;;;;;;;1.48;1.37;;;23.00;65.50;;;;;;651398;221;26565;-69
2022/06/30 06:24:56;;;;;;;1.87;1.60;;;23.00;65.50;;;;;;651554;220;26790;-68
2022/06/30 06:27:23;;;;;;;1.98;1.70;;;23.00;65.70;;;;;;651199;220;26500;-69
2022/06/30 06:29:50;;;;;;;1.98;1.87;;;23.00;66.20;;;;;;651126;220;26761;-69
2022/06/30 06:32:17;;;;;;;3.83;1.87;;;23.10;67.20;;;;;;651134;221;26515;-68
2022/06/30 06:34:45;;;;;;;1.98;1.80;;;23.10;66.90;;;;;;651099;221;27122;-69
2022/06/30 06:37:12;;;;;;;3.92;2.65;;;23.10;66.60;;;;;;651097;221;26571;-68
2022/06/30 06:39:40;;;;;;;1.75;1.65;;;23.10;67.20;;;;;;651084;221;26788;-69
2022/06/30 06:42:07;;;;;;;1.70;1.60;;;23.30;66.10;;;;;;650991;221;26508;-69
2022/06/30 06:44:34;;;;;;;4.00;2.08;;;23.50;65.80;;;;;;650991;221;26757;-69
2022/06/30 06:47:01;;;;;;;2.10;1.60;;;23.90;65.60;;;;;;650808;221;26579;-69
2022/06/30 06:49:30;;;;;;;2.22;1.80;;;24.20;65.00;;;;;;650725;221;26832;-69
2022/06/30 06:51:56;;;;;;;1.90;1.80;;;24.40;64.40;;;;;;650682;221;26570;-69
2022/06/30 06:54:23;;;;;;;1.70;1.60;;;24.50;64.70;;;;;;650852;219;26787;-69
2022/06/30 06:56:50;;;;;;;1.60;1.50;;;24.60;63.90;;;;;;650843;221;26552;-69
2022/06/30 06:59:17;;;;;;;1.67;1.67;;;24.60;64.30;;;;;;650689;221;26824;-69
2022/06/30 07:01:45;;;;;;;1.77;1.67;;;24.70;64.00;;;;;;650763;219;26550;-70
2022/06/30 07:04:12;;;;;;;3.35;2.20;;;24.70;64.40;;;;;;650786;221;26560;-70
2022/06/30 07:06:40;;;;;;;1.50;1.50;;;24.40;64.50;;;;;;650816;221;26577;-69
2022/06/30 07:09:08;;;;;;;1.70;1.60;;;24.40;64.90;;;;;;650709;221;26590;-69
2022/06/30 07:11:35;;;;;;;1.60;1.50;;;24.30;64.80;;;;;;650796;221;26531;-70
2022/06/30 07:14:02;;;;;;;1.40;1.40;;;24.20;65.40;;;;;;650779;221;26582;-68
2022/06/30 07:16:31;;;;;;;2.28;2.08;;;24.30;65.50;;;;;;650749;221;26915;-69
2022/06/30 07:18:58;;;;;;;1.83;1.70;;;24.30;64.50;;;;;;650607;221;26811;-69
2022/06/30 07:21:25;;;;;;;1.92;1.83;;;24.40;63.60;;;;;;652520;219;26536;-69
2022/06/30 07:23:52;;;;;;;1.90;1.80;;;24.40;65.70;;;;;;652071;220;26791;-68
2022/06/30 07:26:20;;;;;;;1.60;1.50;;;24.50;65.00;;;;;;651749;220;26518;-69
2022/06/30 07:28:47;;;;;;;1.75;1.65;;;24.70;65.40;;;;;;651550;221;27004;-70
2022/06/30 07:31:15;;;;;;;2.08;1.90;;;25.00;65.50;;;;;;651440;219;26557;-69
2022/06/30 07:33:43;;;;;;;1.52;1.42;;;25.20;62.80;;;;;;651258;219;26526;-69
2022/06/30 07:36:11;;;;;;;3.03;2.25;;;25.30;62.90;;;;;;650992;221;26584;-70
2022/06/30 07:38:40;;;;;;;2.60;2.12;;;25.60;62.00;;;;;;638576;224;26505;-69
2022/06/30 07:41:07;;;;;;;1.85;1.73;;;25.50;61.80;;;;;;641769;221;26597;-70
2022/06/30 07:43:34;;;;;;;1.58;1.58;;;25.70;59.80;;;;;;641567;221;26544;-69
2022/06/30 07:46:04;;;;;;;2.10;2.00;;;25.90;60.00;;;;;;639793;222;26580;-69
2022/06/30 07:48:31;;;;;;;2.30;2.12;;;25.90;60.00;;;;;;641185;221;26881;-68
2022/06/30 07:50:59;;;;;;;2.00;1.90;;;25.90;59.90;;;;;;645532;221;26504;-69
2022/06/30 07:53:26;;;;;;;1.80;1.70;;;26.00;59.80;;;;;;638259;225;26740;-69
2022/06/30 07:55:54;;;;;;;2.28;2.00;;;26.20;59.70;;;;;;640355;220;26562;-69
2022/06/30 07:58:22;;;;;;;2.25;2.12;;;25.90;60.50;;;;;;639818;221;26546;-70
2022/06/30 08:00:51;;;;;;;2.17;2.00;;;25.80;61.10;;;;;;641366;221;26596;-70
2022/06/30 08:03:18;;;;;;;3.55;2.47;;;25.70;61.10;;;;;;644487;221;26890;-70
2022/06/30 08:05:46;;;;;;;1.90;1.80;;;25.70;60.60;;;;;;641006;221;26511;-70
2022/06/30 08:08:13;;;;;;;2.30;2.15;;;25.60;60.50;;;;;;642466;221;26589;-70
2022/06/30 08:10:40;;;;;;;3.75;2.50;;;25.40;60.60;;;;;;645484;221;26775;-70
2022/06/30 08:13:07;;;;;;;2.47;2.30;;;24.90;62.60;;;;;;643036;221;26580;-70
2022/06/30 08:15:35;;;;;;;2.37;2.20;;;24.50;64.30;;;;;;643057;221;27237;-72
2022/06/30 08:18:02;;;;;;;3.28;2.72;;;24.60;64.50;;;;;;640467;221;26559;-70
2022/06/30 08:20:29;;;;;;;2.40;2.22;;;24.90;64.50;;;;;;643728;221;26551;-73
2022/06/30 08:22:58;;;;;;;2.80;2.60;;;25.60;61.80;;;;;;639735;223;26537;-65
2022/06/30 08:25:25;;;;;;;4.20;2.50;;;25.60;61.80;;;;;;642842;221;26748;-67
2022/06/30 08:27:52;;;;;;;2.30;2.20;;;25.50;61.30;;;;;;640044;219;26535;-71
2022/06/30 08:30:19;;;;;;;3.47;3.17;;;25.40;61.30;;;;;;642725;221;27012;-67
2022/06/30 08:32:46;;;;;;;3.03;2.05;;;25.40;61.90;;;;;;643533;219;26572;-68
2022/06/30 08:35:14;;;;;;;2.58;2.37;;;25.30;61.60;;;;;;646150;219;27066;-69
2022/06/30 08:37:41;;;;;;;2.60;2.40;;;25.30;62.00;;;;;;640845;221;26569;-69
2022/06/30 08:42:42;;;;;;;3.50;2.97;;;24.90;63.90;;;;;;649220;221;26580;-69
2022/06/30 08:45:14;;;;;;;4.37;3.00;;;25.00;63.80;;;;;;640965;222;26513;-70
2022/06/30 08:47:41;;;;;;;2.85;2.65;;;25.10;64.00;;;;;;645473;221;26762;-68
2022/06/30 08:50:09;;;;;;;3.92;2.37;;;25.40;63.90;;;;;;644654;221;26582;-67
2022/06/30 08:52:36;;;;;;;2.30;2.20;;;25.70;63.00;;;;;;643016;221;26560;-70
2022/06/30 08:55:04;;;;;;;3.05;2.62;;;26.10;63.00;;;;;;639442;221;26796;-70
2022/06/30 08:57:31;;;;;;;6.60;3.80;;;26.50;62.30;;;;;;641114;221;26805;-68
2022/06/30 08:59:58;;;;;;;3.80;3.10;;;26.70;61.40;;;;;;643665;221;26796;-68
2022/06/30 09:02:26;;;;;;;2.65;2.45;;;26.80;61.30;;;;;;647113;221;26879;-69
2022/06/30 09:04:54;;;;;;;3.10;2.62;;;27.50;58.50;;;;;;643507;221;26567;-70
2022/06/30 09:07:21;;;;;;;2.72;2.53;;;27.40;58.40;;;;;;643247;220;26590;-70
2022/06/30 09:09:49;;;;;;;2.85;2.65;;;27.60;58.20;;;;;;640902;221;26809;-67
2022/06/30 09:12:16;;;;;;;3.15;2.87;;;27.80;57.90;;;;;;639617;221;26616;-68
2022/06/30 09:14:43;;;;;;;2.35;2.20;;;28.00;58.50;;;;;;641121;221;26575;-66
2022/06/30 09:17:10;;;;;;;3.50;3.20;;;27.90;57.50;;;;;;640173;221;26564;-68
2022/06/30 09:19:57;;;;;;;3.72;3.17;;;27.90;57.40;;;;;;638883;221;26853;-68
2022/06/30 09:22:22;;;;;;;6.53;3.47;;;27.90;57.60;;;;;;641116;221;26593;-68
2022/06/30 09:24:55;;;;;;;3.72;3.20;;;27.50;58.20;;;;;;639756;221;26557;-67
2022/06/30 09:27:24;;;;;;;3.45;3.10;;;27.50;57.90;;;;;;642580;221;26887;-66
2022/06/30 09:29:53;;;;;;;3.47;3.15;;;27.50;57.90;;;;;;638740;221;26504;-66
2022/06/30 09:32:21;;;;;;;3.53;3.22;;;27.40;58.10;;;;;;641062;221;26825;-66
2022/06/30 09:34:48;;;;;;;5.65;3.42;;;27.30;59.00;;;;;;640497;221;26540;-65
2022/06/30 09:37:17;;;;;;;3.20;3.00;;;27.20;58.90;;;;;;643447;221;26842;-66
2022/06/30 09:39:45;;;;;;;3.55;2.85;;;27.50;59.20;;;;;;639653;218;26569;-66
2022/06/30 09:42:13;;;;;;;2.80;2.60;;;28.00;58.30;;;;;;642775;221;26617;-65
2022/06/30 09:44:40;;;;;;;3.28;3.00;;;28.00;58.30;;;;;;642493;220;26562;-66
2022/06/30 09:47:08;;;;;;;2.62;2.42;;;28.20;57.10;;;;;;642383;221;26504;-66
2022/06/30 09:49:40;;;;;;;2.83;2.58;;;28.30;57.00;;;;;;641376;220;26534;-66
2022/06/30 09:52:21;;;;;;;3.10;2.83;;;28.30;57.00;;;;;;642458;221;26617;-70
2022/06/30 09:55:07;;;;;;;3.60;3.10;;;28.30;57.30;;;;;;645514;221;26646;-68
2022/06/30 09:57:37;;;;;;;3.10;2.87;;;28.10;57.40;;;;;;646644;220;27450;-68
2022/06/30 10:00:09;;;;;;;3.92;3.20;;;27.90;57.50;;;;;;641148;218;26586;-68
2022/06/30 10:02:39;;;;;;;3.37;2.90;;;27.80;58.00;;;;;;641433;221;26585;-70
2022/06/30 10:05:06;;;;;;;3.08;2.83;;;27.80;57.70;;;;;;644678;221;26792;-71
2022/06/30 10:07:35;;;;;;;3.12;2.92;;;27.90;56.80;;;;;;638255;221;26566;-69
2022/06/30 10:10:04;;;;;;;3.60;3.30;;;28.60;57.20;;;;;;640249;219;26579;-71
2022/06/30 10:12:32;;;;;;;4.03;3.50;;;28.70;55.90;;;;;;637650;225;26573;-71
2022/06/30 10:15:00;;;;;;;8.90;4.75;;;28.70;56.20;;;;;;648827;221;26521;-69
2022/06/30 10:17:28;;;;;;;5.15;3.67;;;28.40;56.10;;;;;;638180;224;26609;-69
2022/06/30 10:19:55;;;;;;;3.08;2.83;;;28.40;56.00;;;;;;638942;222;26586;-70
2022/06/30 10:22:22;;;;;;;9.85;4.80;;;28.30;56.10;;;;;;638163;224;26488;-69
2022/06/30 10:24:49;;;;;;;7.05;4.53;;;28.20;56.80;;;;;;638841;225;26771;-70
2022/06/30 10:27:16;;;;;;;5.28;3.70;;;28.20;57.10;;;;;;638062;225;26484;-70
2022/06/30 10:29:44;;;;;;;4.95;3.95;;;28.40;56.60;;;;;;644329;221;27096;-72
2022/06/30 10:32:20;;;;;;;6.90;3.75;;;28.20;56.10;;;;;;642673;221;26513;-71
2022/06/30 10:34:44;;;;;;;3.62;3.33;;;28.20;56.20;;;;;;638477;225;26492;-71
2022/06/30 10:37:17;;;;;;;3.75;3.42;;;27.90;56.60;;;;;;640435;223;26495;-69
2022/06/30 10:39:48;;;;;;;4.03;3.42;;;28.10;56.50;;;;;;647985;221;26806;-69
2022/06/30 10:42:38;;;;;;;3.47;3.28;;;28.90;55.60;;;;;;650418;221;26501;-69
2022/06/30 10:45:06;;;;;;;3.55;3.10;;;28.90;55.60;;;;;;638707;224;26583;-69
2022/06/30 10:47:33;;;;;;;4.22;3.55;;;29.50;55.60;;;;;;637977;225;26583;-70
2022/06/30 10:50:00;;;;;;;5.25;4.50;;;29.80;54.90;;;;;;638739;224;26793;-69
2022/06/30 10:52:28;;;;;;;3.97;3.67;;;29.80;54.40;;;;;;638580;223;26528;-70
2022/06/30 10:54:58;;;;;;;13.10;10.52;;;29.90;53.90;;;;;;639138;223;26804;-70
2022/06/30 10:57:25;;;;;;;13.65;10.70;;;29.90;53.70;;;;;;639990;224;26701;-69
2022/06/30 10:59:53;;;;;;;3.78;3.47;;;29.80;53.90;;;;;;641606;221;26592;-67
2022/06/30 11:02:22;;;;;;;4.72;4.30;;;29.50;54.10;;;;;;648997;221;26512;-68
2022/06/30 11:04:49;;;;;;;8.68;6.60;;;29.50;53.80;;;;;;651882;220;26496;-67
2022/06/30 11:07:20;;;;;;;12.15;9.20;;;29.80;53.40;;;;;;649365;220;26502;-66
2022/06/30 11:10:02;;;;;;;4.93;4.53;;;29.80;53.40;;;;;;645365;221;26580;-67
2022/06/30 11:12:49;;;;;;;3.42;3.12;;;29.90;53.40;;;;;;641339;221;26524;-67
2022/06/30 11:15:17;;;;;;;3.90;3.60;;;29.90;52.80;;;;;;646741;220;26539;-67
2022/06/30 11:17:44;;;;;;;4.97;4.47;;;29.70;54.00;;;;;;641431;221;26810;-68
2022/06/30 11:20:12;;;;;;;4.05;3.65;;;29.60;54.00;;;;;;641822;218;26589;-68
2022/06/30 11:22:38;;;;;;;4.12;3.83;;;29.60;53.30;;;;;;643652;221;26784;-67
2022/06/30 11:25:09;;;;;;;4.28;3.97;;;29.60;53.00;;;;;;644472;221;26623;-68
2022/06/30 11:27:36;;;;;;;4.20;3.90;;;29.80;53.00;;;;;;641899;221;26535;-67
2022/06/30 11:30:07;;;;;;;4.68;4.00;;;30.00;53.20;;;;;;641446;221;26814;-68
2022/06/30 11:32:34;;;;;;;4.78;4.35;;;30.20;53.00;;;;;;641479;220;26742;-68
2022/06/30 11:35:03;;;;;;;8.35;6.65;;;30.00;53.10;;;;;;643186;221;26515;-67
2022/06/30 11:37:30;;;;;;;5.30;4.90;;;30.00;53.10;;;;;;645534;221;26521;-67
2022/06/30 11:40:07;;;;;;;4.68;4.28;;;30.20;52.60;;;;;;644358;221;26805;-68
2022/06/30 11:42:35;;;;;;;4.05;3.75;;;30.50;52.80;;;;;;641134;220;26526;-67
2022/06/30 11:45:02;;;;;;;5.47;4.95;;;30.90;52.00;;;;;;637881;224;27155;-68
2022/06/30 11:47:29;;;;;;;5.28;4.78;;;30.90;52.00;;;;;;638684;225;26532;-69
2022/06/30 11:49:58;;;;;;;4.15;3.85;;;31.40;51.10;;;;;;638498;222;26515;-68
2022/06/30 11:52:42;;;;;;;5.43;4.93;;;31.40;51.10;;;;;;648491;221;26581;-67
2022/06/30 11:55:10;;;;;;;5.18;4.68;;;31.80;50.60;;;;;;637899;225;26569;-68
2022/06/30 11:57:38;;;;;;;6.10;5.60;;;31.70;50.40;;;;;;638465;225;26524;-68
2022/06/30 12:00:06;;;;;;;4.53;4.12;;;31.90;50.20;;;;;;638734;224;26816;-67
2022/06/30 12:02:34;;;;;;;4.00;3.70;;;32.00;49.70;;;;;;650649;220;26572;-68
2022/06/30 12:05:02;;;;;;;4.40;4.00;;;31.70;50.10;;;;;;642545;221;26509;-69
2022/06/30 12:07:30;;;;;;;4.87;4.28;;;31.30;50.80;;;;;;645520;218;26575;-68
2022/06/30 12:09:58;;;;;;;4.05;3.75;;;31.20;50.60;;;;;;639888;223;26764;-68
2022/06/30 12:12:27;;;;;;;5.10;4.37;;;30.90;50.90;;;;;;638420;224;26562;-68
2022/06/30 12:14:55;;;;;;;4.45;4.07;;;30.60;51.00;;;;;;639553;225;26523;-69
2022/06/30 12:17:22;;;;;;;5.55;4.93;;;30.30;52.00;;;;;;649393;221;26581;-69
2022/06/30 12:19:50;;;;;;;5.12;4.62;;;30.10;52.40;;;;;;641858;221;26589;-69
2022/06/30 12:22:18;;;;;;;5.60;4.80;;;29.90;52.50;;;;;;639122;224;26510;-69
2022/06/30 12:24:45;;;;;;;5.50;5.00;;;29.90;52.50;;;;;;649509;220;26606;-69
2022/06/30 12:27:24;;;;;;;5.43;4.93;;;29.90;52.00;;;;;;645232;221;26551;-69
2022/06/30 12:29:56;;;;;;;4.72;4.32;;;29.90;52.30;;;;;;639250;225;26563;-69
2022/06/30 12:32:23;;;;;;;4.25;3.95;;;30.30;52.00;;;;;;639615;221;26538;-69
2022/06/30 12:34:52;;;;;;;5.62;5.10;;;30.50;51.90;;;;;;647743;221;26478;-68
2022/06/30 12:37:26;;;;;;;4.95;4.53;;;30.50;51.90;;;;;;639200;225;26520;-69
2022/06/30 12:39:53;;;;;;;5.10;4.62;;;30.40;52.00;;;;;;647933;221;26599;-68
2022/06/30 12:42:21;;;;;;;6.37;4.70;;;30.10;52.00;;;;;;639849;221;26565;-69
2022/06/30 12:44:49;;;;;;;10.60;5.00;;;30.00;52.50;;;;;;650787;221;26552;-69
2022/06/30 12:47:17;;;;;;;7.43;5.18;;;30.00;52.10;;;;;;644996;221;26555;-68
2022/06/30 12:49:45;;;;;;;5.87;5.32;;;29.90;52.30;;;;;;642945;221;26591;-69
2022/06/30 12:52:15;;;;;;;5.45;4.90;;;30.00;52.50;;;;;;638499;222;26527;-69
2022/06/30 12:54:50;;;;;;;4.90;4.40;;;30.00;52.50;;;;;;641605;221;26513;-67
2022/06/30 12:57:17;;;;;;;4.68;4.25;;;30.40;52.30;;;;;;644106;219;26803;-69
2022/06/30 12:59:45;;;;;;;4.80;4.40;;;30.80;51.60;;;;;;637949;221;26556;-68
2022/06/30 13:02:16;;;;;;;4.45;3.90;;;31.30;50.70;;;;;;637571;224;26781;-68
2022/06/30 13:04:39;;;;;;;4.40;4.10;;;31.70;50.50;;;;;;638905;221;26558;-71